• Join FlightAware (Why Join?)
  • Login
  • US Flag 
11:03PM EDT


 

Airport Tracker/Info


-or-


 

Live Flight TrackerFlight Track Log ✈ DAL6221 ✈ 21-Apr-2013 ✈ KBTV - KLGA

Flight Track Log - Related Links

Times and Time Zones

All times are in EDT time to prevent confusion due to time zone crossing. See the DAL6221 flight status page for this flight to view local times or setup timezone preferences in your user account.

Time Position Orientation Groundspeed Altitude Reporting Facility
EDT Latitude Longitude Course Direction KTS MPH feet Rate Location/Type
02:05PM 44.3394 -73.2789 192° South 301 346 9,200  Level Boston Center
02:06PM 44.2539 -73.3097 194° South 312 359 10,800 2,040 Climbing Boston Center
02:07PM 44.1558 -73.3428 194° South 342 394 13,300 2,460 Climbing Boston Center
02:08PM 43.9159 -73.3603 196° South  Level FlightAware Approximate
02:08PM 44.0553 -73.3761 193° South 365 420 15,800  Level Boston Center
02:09PM 43.8240 -73.3953 195° South  Level FlightAware Approximate
02:09PM 43.9531 -73.4119 194° South 375 432 17,900  Level Boston Center
02:10PM 43.8506 -73.4447 193° South 380 437 19,700 1,920 Climbing Boston Center
02:11PM 43.7608 -73.4750 194° South 374 430 21,800 1,860 Climbing Boston Center
02:12PM 43.6436 -73.5103 192° South 379 436 23,500 1,620 Climbing Boston Center
02:13PM 43.5392 -73.5456 194° South 385 443 25,100 1,200 Climbing Boston Center
02:14PM 43.4306 -73.5836 194° South 396 456 26,000 420 Climbing Boston Center
02:15PM 43.3217 -73.6158 192° South 396 456 26,000  Level Boston Center
02:16PM 43.2150 -73.6536 194° South 396 456 26,000 -540 Level Boston Center
02:17PM 43.1064 -73.6886 193° South 396 456 25,000 -1,260 Descending Boston Center
02:18PM 43.0017 -73.7233 194° South 396 456 23,500 -1,500 Descending Boston Center
02:19PM 42.8950 -73.7608 194° South 396 456 22,100 -780 Descending Boston Center
02:20PM 42.7906 -73.7925 193° South 396 456 22,000 -360 Descending Boston Center
02:21PM 42.6781 -73.7872 178° South 396 456 21,400 -900 Descending Boston Center
02:22PM 42.5928 -73.7742 174° South 396 456 20,200 -1,500 Descending Boston Center
02:23PM 42.4639 -73.7458 171° South 390 449 18,500 -1,140 Descending Boston Center
02:24PM 42.3703 -73.7272 172° South 390 449 18,000 -300 Descending Boston Center
02:25PM 42.2578 -73.7053 172° South 390 449 18,000  Level Boston Center
02:26PM 42.1661 -73.7089 182° South 385 443 18,000  Level Boston Center
02:27PM 42.0617 -73.7319 189° South 380 437 18,000  Level Boston Center
02:28PM 41.9467 -73.7603 190° South 385 443 18,000 -300 Level Boston Center
02:29PM 41.8589 -73.7808 190° South 377 434 17,400 -1,440 Descending Boston Center
02:30PM 41.7522 -73.8092 191° South 365 420 15,200 -2,100 Descending Boston Center
02:31PM 41.6667 -73.8269 189° South 350 403 13,200 -1,920 Descending Boston Center
02:32PM 41.5167 -73.8667 191° South 359 413 10,500 -1,740 Descending New York TRACON
02:33PM 41.4333 -73.8667 180° South 312 359 9,100 -1,320 Descending New York TRACON
02:34PM 41.3667 -73.8167 151° Southeast 290 334 8,000 -600 Descending New York TRACON
02:35PM 41.3000 -73.7500 143° Southeast 297 342 8,000  Level New York TRACON
02:36PM 41.2333 -73.7000 151° Southeast 293 337 8,000 -240 Level New York TRACON
02:37PM 41.1500 -73.6500 156° South 293 337 7,600 -780 Descending New York TRACON
02:38PM 41.0833 -73.6167 159° South 277 319 6,400 -1,260 Descending New York TRACON
02:39PM 41.0333 -73.6500 207° Southwest 282 325 5,300 -1,260 Descending New York TRACON
02:40PM 40.9667 -73.7000 210° Southwest 267 307 4,100 -660 Descending New York TRACON
02:41PM 40.9167 -73.7833 232° Southwest 265 305 4,000 -60 Descending New York TRACON
02:42PM 40.8833 -73.8667 242° Southwest 268 308 4,000  Level New York TRACON
02:43PM 40.8333 -73.9333 225° Southwest 269 310 4,000  Level New York TRACON
02:44PM 40.7833 -74.0000 225° Southwest 248 285 4,000  Level New York TRACON
02:45PM 40.7333 -74.0333 207° Southwest 190 219 4,000 -300 Level New York TRACON
02:46PM 40.6833 -74.0833 217° Southwest 196 226 3,500 -540 Descending New York TRACON
02:47PM 40.6333 -74.1167 207° Southwest 195 224 3,000 -300 Descending New York TRACON
02:48PM 40.6000 -74.1000 159° South 202 232 3,000  Level New York TRACON
02:49PM 40.6000 -74.0500 90° East 178 205 3,000  Level New York TRACON
02:50PM 40.6333 -74.0000 49° Northeast 176 203 3,000 -360 Level New York TRACON
02:51PM 40.6833 -73.9667 27° Northeast 177 204 2,300 -660 Descending New York TRACON